Fernwood, NH

2:38 AM EST on February 24, 2017 (GMT -0500)
Job's Creek Lake Sunapee | | Change Station
Active Advisory: Areal Flood Watch Active Notice: Areal Flood Watch

Elev 1093 ft 43.41 °N, 72.06 °W | Updated 2 days ago

Partly Cloudy
Partly Cloudy
40.7 °F
Feels Like 37 °F
N
6.0
Wind Variable Wind from SSE

Today
High -- | Low -- °F
--% Chance of Precip.
Yesterday
High -- | Low -- °F
Precip. -- in
Pressure 29.88 in
Visibility 7.0 miles
Clouds Clear
Windchill 37 °F
Dew Point 19 °F
Humidity 41%
Rainfall 0.00 in
Snow Depth Not available.
6:32 AM 5:31 PM
Waning Crescent, 6% visible
METAR KLEB 240653Z AUTO 00000KT 7SM CLR 01/00 A2987 RMK AO2 SLP116 T00060000
Pressure 29.88 in
Visibility 7.0 miles
Clouds Clear
Windchill 37 °F
Dew Point 19 °F
Humidity 41%
Rainfall 0.00 in
Snow Depth Not available.
6:32 AM 5:31 PM
Waning Crescent, 6% visible
METAR KLEB 240653Z AUTO 00000KT 7SM CLR 01/00 A2987 RMK AO2 SLP116 T00060000

Get Your Daily Forecast Email!

Thanks for signing up!

Be on the lookout for a verification email in your inbox.

You'll start receiving the daily forecast at 8 AM.

×

10-Day Weather Forecast

Almanac

Astronomy

Feb. 24, 2017 Rise Set
Actual Time
Civil Twilight
Nautical Twilight
Astronomical Twilight
Moon
Length of Visible Light
Length of Day
Tomorrow will be .
, % of the Moon is Illuminated

Today's Extremes

State Highs State Lows

Community

WunderPhotos

Upload Photos

1,962,540 photos uploaded!

WunderBlog® & News

Nearby

Air Quality

  Air Quality AQ Index Pollutant
Not available.

Snow Depth

Station Depth Elevation

Earthquake Activity

City Distance Mag. Time & Date
Minimum magnitude displayed is 2.5.

Coastal Water Temperatures

Place Temperature

Stations

Nearby Weather Stations

Station Location Temp. Windchill Dew Point Humidity Wind Precip. Elev Updated Type
                   

Watches & Warnings

Areal Flood Watch
Issued: 8:45 PM EST Feb. 23, 2017 – National Weather Service

... Flood Watch remains in effect from Friday evening through
Sunday evening...

The Flood Watch continues for...

* portions of western Maine and New Hampshire.

* From Friday evening through Sunday evening.

* Exceptionally warm temperatures Friday and Saturday will
generate significant melting of snowpack. This melting will
result in rising levels on area rivers and streams. Additionally,
a strong cold front will move across the region Saturday night
producing locally heavy rainfall with up to an inch possible in
some locations.

* The primary flood threat will be ice jam flooding. The threat is
greater in New Hampshire where temperatures will be warmest and
precipitation will be greater than in Maine.

Precautionary/preparedness actions...

A Flood Watch means there is a potential for flooding based on
current forecasts.

You should monitor later forecasts and be alert for possible
flood warnings. Those living in areas prone to flooding should be
prepared to take action should flooding develop.



Arnott